EB1TK-12
43.19.33N 005.52.30W
IN73BH aprs.fi
zuletzt gehoert:
2022-01-08T15:21:07Z
zuerst gehoert:
2021-01-13T16:31:59Z

APRS Ribera de Arriba [IN73BH], 0 Stunde(n), EB1TK-12 [15:37:23, 0s].
EA1HWX 43.19.20N 005.50.74WIN73BH 1.928km 90°E14:32:53ZMMDVM DMO 435.5000/435.5000 CC1
EA1L 43.20.38N 005.51.13WIN73BI 2.616km 32°NNE14:10:59ZWind 033°/001kn, Böen bis 003kn, Temp 10.56c, Regen 0.0mm, letzte 24h 0.0mm, seit 0h 0.0mm, Baro 1031.6h, Hum: 70%(3EA1L-13)
ea1l@ure.es V=13.5V,T=??.?C(2EA1L)
EB1JAJ 43.21.72N 005.51.82WIN73BI 4.698km N14:32:29ZMMDVM MMDVM HS Dual Hat 438.0250/431.0250 CC1
33D00 43.21.63N 005.51.13WIN73BI 4.723km 17°NNE14:02:15Z33-D-00 Protección Civil REMER / Delegación del Gobierno en Asturias
EA1YR 43.22.09N 005.51.86WIN73BI 5.393km N14:31:11ZMMDVM DVS 434.3500/434.3500 CC1
ED1ZAU 43.23.04N 005.52.75WIN73BJ 7.162km 354°N14:30:35ZRD625 438.5000/430.9000 CC1
LEHU 43.22.63N 005.49.57WIN73CJ 7.261km 29°NNE14:30:08ZHelipuerto del HUCA: LEAS 291330Z 08007KT 040V140 9999 FEW014 11/06 Q1034 NOSIG=
EA1IMW 43.14.36N 005.46.93WIN73CF 11.425km 142°SE14:32:34ZGRUPO RADIO GALENA (GRG) 430.4500/430.4500 CC1
EA1ABW 43.24.77N 005.47.77WIN73CJ 11.921km 30°NNE14:31:13ZMMDVM MMDVM HS Hat 439.8250/439.8250 CC1
LEMR 43.25.83N 005.49.60WIN73CK 12.767km 16°NNE14:30:07ZAerodromo de la Morgal: LEAS 291330Z 08007KT 040V140 9999 FEW014 11/06 Q1034 NOSIG=
LEGM 43.26.15N 005.49.84WIN73CK 13.280km 14°NNE14:30:06ZHelipuerto de La Morgal: LEAS 291330Z 08007KT 040V140 9999 FEW014 11/06 Q1034 NOSIG=
EA1JBL 43.12.28N 005.47.42WIN73CE 14.315km 153°SSE14:31:03ZMMDVM DVMega 435.3000/435.3000 CC1
EA1HWA 43.12.00N 005.47.40WIN73CE 14.815km 154°SSE14:31:49ZMMDVM MMDVM HS Hat 433.4500/433.4500 CC1
EB1DGC 43.12.60N 005.45.59WIN73CF 15.110km 144°SE14:31:46ZMMDVM MMDVM HS Hat 433.4500/433.4500 CC1
EA1RCG 43.09.45N 005.49.78WIN73CD 18.330km 170°S14:31:40ZGRUPO RADIO GALENA (GRG) 430.4500/430.4500 CC1
ED1ZAY 43.29.47N 005.56.54WIN73AL 19.940km 343°NNW14:30:36ZRD625 438.3000/430.7000 CC1
EA1FLQ 43.22.00N 005.36.35WIN73EI 21.942km 76°ENE14:31:43ZMMDVM DVMega 430.9750/430.9750 CC1
ED1ZAS 43.27.52N 005.40.17WIN73DL 22.349km 46°NE14:30:40ZRD985 438.2250/430.6250 CC1
ED1ZAE 43.27.99N 005.40.54WIN73DL 22.597km 44°NE14:29:25ZWIDE3-3 ESAS3-3 IN73DL WWW.EA1URG.ORG(3ED1ZAE-3)
EC1AIJ 43.19.77N 005.33.49WIN73FH 25.216km 87°E14:31:06ZMMDVM MMDVM HS Hat 432.9800/432.9800 CC1
EA1AHA 43.32.74N 005.54.36WIN73BN 25.265km 353°N14:31:03ZWind 090°/007kn, Böen bis 011kn, Temp 12.78c, Regen 0.0mm, letzte 24h 1.0mm, seit 0h 1.0mm, Baro 1035.5h, Hum: 62%(3EA1AHA-13)
MMDVM MMDVM HS Hat 432.0000/432.0000 CC1(2EA1AHA)
EB1TK 43.32.22N 005.42.32WIN73DM 27.553km 29°NNE14:35:16ZWind 074°/017kn, Böen bis 026kn, Temp 10.00c, Regen 0.0mm, letzte 24h 0.0mm, seit 0h 0.0mm, Baro 1036.8h, Hum: 84%(3EB1TK-13)
ED1ZAD 43.07.90N 005.38.52WIN73ED 27.877km 139°SE14:28:55ZED1ZAD-3 APRS Digi/Igate(3ED1ZAD-3)
EA1JBE 43.08.09N 005.38.08WIN73ED 28.014km 137°SE14:36:37ZDario(3EA1JBE-7)
Qso ended (EA1JBE-9)(2EA1JBE-9)
EA1DZR 43.31.47N 005.40.00WIN73DM 28.024km 36°NE14:32:49ZMMDVM DVMega 431.1000/431.1000 CC1
EA1IEJ 43.31.81N 005.40.25WIN73DM 28.368km 34°NE14:32:30ZMMDVM MMDVM HS Hat 438.8500/438.8500 CC6
LEEL 43.32.98N 005.41.71WIN73DN 29.159km 29°NNE14:30:09ZHelipuerto de El Musel: LEAS 291330Z 08007KT 040V140 9999 FEW014 11/06 Q1034 NOSIG=
EB1GEM 43.30.00N 005.36.07WIN73EM 29.523km 47°NE14:26:02ZWX3in1Plus2.0 U=13.3V,T=??.?C/??.?F(3EB1GEM-3)
EA1HJA 43.28.10N 005.30.45WIN73FL 33.588km 60°ENE14:34:17Z IN73FL WX3IN1+ 2.0 - V=14.0V,TX TEMP=43.5C
IN73FL WX3IN1+ 2.0 - V=13.2V,TX TEMP=30.2C(2EA1HJA-2)
EA1FHR 43.28.72N 005.26.41WIN73GL 38.911km 63°ENE14:31:46ZMMDVM MMDVM HS Hat 439.1500/439.1500 CC1
EA1JAY 43.29.33N 005.26.78WIN73GL 39.018km 61°ENE14:30:07Z434.525MHz Nodo TETRA DMO(3EA1JAY-4)
EA1JAY(2EA1JAY-2)
EA1HWD 43.28.96N 005.26.30WIN73GL 39.257km 62°ENE14:32:31Z144.575FM Local frecuency VHF. 434.2500/434.2500 CC1
LETN 43.20.05N 006.22.69WIN63TI 41.169km 272°W14:30:07ZAerodromo de La Curiscada (Tineo): LEAS 291330Z 08007KT 040V140 9999 FEW014 11/06 Q1034 NOSIG=
EA1GHF 43.17.99N 006.22.79WIN63TH 41.345km 267°W14:32:29ZMMDVM MMDVM HS Hat 434.4000/434.4000 CC1
EA1UR 43.02.36N 005.29.05WIN73GA 44.148km 135°SE14:23:34ZAprsDroid Sam.J7(3EA1UR-5)

aprs.pl 5.0.011w DL3EL © 2006-2021 [1516440]